sensor_id;sensor_type;location;lat;lon;timestamp;pressure;altitude;pressure_sealevel;temperature;humidity
38466;BME280;24244;51.950;5.902;2023-04-19T00:01:50;102680.06;;;11.19;65.88
38466;BME280;24244;51.950;5.902;2023-04-19T00:04:18;102665.09;;;11.18;66.17
38466;BME280;24244;51.950;5.902;2023-04-19T00:06:46;102667.59;;;11.19;66.26
38466;BME280;24244;51.950;5.902;2023-04-19T00:09:13;102674.63;;;11.20;66.33
38466;BME280;24244;51.950;5.902;2023-04-19T00:11:41;102679.81;;;11.22;66.25
38466;BME280;24244;51.950;5.902;2023-04-19T00:14:08;102666.63;;;11.20;66.16
38466;BME280;24244;51.950;5.902;2023-04-19T00:16:35;102663.00;;;11.21;66.45
38466;BME280;24244;51.950;5.902;2023-04-19T00:19:03;102665.66;;;11.21;66.58
38466;BME280;24244;51.950;5.902;2023-04-19T00:21:31;102660.31;;;11.21;66.48
38466;BME280;24244;51.950;5.902;2023-04-19T00:24:00;102659.63;;;11.19;66.58
38466;BME280;24244;51.950;5.902;2023-04-19T00:26:27;102663.25;;;11.18;66.77
38466;BME280;24244;51.950;5.902;2023-04-19T00:28:54;102662.28;;;11.19;66.70
38466;BME280;24244;51.950;5.902;2023-04-19T00:31:21;102655.97;;;11.20;66.92
38466;BME280;24244;51.950;5.902;2023-04-19T00:33:48;102657.66;;;11.21;66.75
38466;BME280;24244;51.950;5.902;2023-04-19T00:36:14;102652.34;;;11.21;66.91
38466;BME280;24244;51.950;5.902;2023-04-19T00:38:43;102651.50;;;11.21;66.66
38466;BME280;24244;51.950;5.902;2023-04-19T00:41:10;102655.97;;;11.20;66.77
38466;BME280;24244;51.950;5.902;2023-04-19T00:43:37;102655.59;;;11.15;67.21
38466;BME280;24244;51.950;5.902;2023-04-19T00:46:04;102647.88;;;11.12;67.12
38466;BME280;24244;51.950;5.902;2023-04-19T00:48:33;102646.19;;;11.11;67.00
38466;BME280;24244;51.950;5.902;2023-04-19T00:51:01;102643.84;;;11.08;67.44
38466;BME280;24244;51.950;5.902;2023-04-19T00:53:34;102642.16;;;11.07;67.27
38466;BME280;24244;51.950;5.902;2023-04-19T00:56:03;102641.44;;;11.05;67.45
38466;BME280;24244;51.950;5.902;2023-04-19T00:58:31;102644.25;;;11.04;67.41
38466;BME280;24244;51.950;5.902;2023-04-19T01:00:58;102645.38;;;11.01;67.54
38466;BME280;24244;51.950;5.902;2023-04-19T01:03:26;102645.38;;;11.01;67.50
38466;BME280;24244;51.950;5.902;2023-04-19T01:05:54;102648.19;;;10.99;67.72
38466;BME280;24244;51.950;5.902;2023-04-19T01:08:21;102648.19;;;10.99;67.61
38466;BME280;24244;51.950;5.902;2023-04-19T01:10:48;102650.84;;;10.99;67.45
38466;BME280;24244;51.950;5.902;2023-04-19T01:13:17;102645.94;;;10.95;67.95
38466;BME280;24244;51.950;5.902;2023-04-19T01:15:43;102642.59;;;10.93;67.61
38466;BME280;24244;51.950;5.902;2023-04-19T01:18:10;102643.72;;;10.90;67.87
38466;BME280;24244;51.950;5.902;2023-04-19T01:20:39;102638.53;;;10.89;67.95
38466;BME280;24244;51.950;5.902;2023-04-19T01:23:07;102638.97;;;10.84;68.01
38466;BME280;24244;51.950;5.902;2023-04-19T01:25:38;102638.25;;;10.82;68.18
38466;BME280;24244;51.950;5.902;2023-04-19T01:28:05;102639.22;;;10.81;68.25
38466;BME280;24244;51.950;5.902;2023-04-19T01:30:32;102636.56;;;10.81;68.14
38466;BME280;24244;51.950;5.902;2023-04-19T01:32:59;102640.38;;;10.79;68.24
38466;BME280;24244;51.950;5.902;2023-04-19T01:35:26;102648.34;;;10.79;68.29
38466;BME280;24244;51.950;5.902;2023-04-19T01:37:53;102643.88;;;10.79;68.23
38466;BME280;24244;51.950;5.902;2023-04-19T01:40:24;102638.69;;;10.78;68.32
38466;BME280;24244;51.950;5.902;2023-04-19T01:42:51;102637.28;;;10.74;68.38
38466;BME280;24244;51.950;5.902;2023-04-19T01:45:18;102635.75;;;10.71;68.34
38466;BME280;24244;51.950;5.902;2023-04-19T01:47:45;102631.28;;;10.72;68.59
38466;BME280;24244;51.950;5.902;2023-04-19T01:50:12;102644.56;;;10.72;68.51
38466;BME280;24244;51.950;5.902;2023-04-19T01:52:39;102639.66;;;10.67;68.42
38466;BME280;24244;51.950;5.902;2023-04-19T01:55:06;102645.16;;;10.66;68.36
38466;BME280;24244;51.950;5.902;2023-04-19T01:57:34;102644.31;;;10.65;68.92
38466;BME280;24244;51.950;5.902;2023-04-19T02:00:01;102648.91;;;10.63;68.65
38466;BME280;24244;51.950;5.902;2023-04-19T02:02:28;102640.94;;;10.63;68.86
38466;BME280;24244;51.950;5.902;2023-04-19T02:04:56;102647.50;;;10.59;68.81
38466;BME280;24244;51.950;5.902;2023-04-19T02:07:23;102643.31;;;10.56;68.77
38466;BME280;24244;51.950;5.902;2023-04-19T02:09:50;102646.94;;;10.55;68.58
38466;BME280;24244;51.950;5.902;2023-04-19T02:12:17;102640.94;;;10.53;68.81
38466;BME280;24244;51.950;5.902;2023-04-19T02:14:45;102643.88;;;10.50;68.99
38466;BME280;24244;51.950;5.902;2023-04-19T02:17:12;102640.38;;;10.50;69.16
38466;BME280;24244;51.950;5.902;2023-04-19T02:19:38;102638.81;;;10.47;69.29
38466;BME280;24244;51.950;5.902;2023-04-19T02:22:05;102645.13;;;10.46;69.35
38466;BME280;24244;51.950;5.902;2023-04-19T02:24:32;102645.41;;;10.43;69.25
38466;BME280;24244;51.950;5.902;2023-04-19T02:26:59;102644.56;;;10.43;69.07
38466;BME280;24244;51.950;5.902;2023-04-19T02:29:27;102636.72;;;10.41;69.50
38466;BME280;24244;51.950;5.902;2023-04-19T02:31:55;102635.75;;;10.42;69.12
38466;BME280;24244;51.950;5.902;2023-04-19T02:34:22;102644.97;;;10.38;69.24
38466;BME280;24244;51.950;5.902;2023-04-19T02:36:49;102642.47;;;10.37;69.51
38466;BME280;24244;51.950;5.902;2023-04-19T02:39:17;102647.63;;;10.38;69.22
38466;BME280;24244;51.950;5.902;2023-04-19T02:41:44;102648.63;;;10.37;69.43
38466;BME280;24244;51.950;5.902;2023-04-19T02:44:11;102648.47;;;10.39;69.50
38466;BME280;24244;51.950;5.902;2023-04-19T02:46:38;102657.16;;;10.41;69.28
38466;BME280;24244;51.950;5.902;2023-04-19T02:49:06;102645.69;;;10.40;69.57
38466;BME280;24244;51.950;5.902;2023-04-19T02:51:33;102641.34;;;10.39;69.36
38466;BME280;24244;51.950;5.902;2023-04-19T02:54:00;102643.16;;;10.39;69.83
38466;BME280;24244;51.950;5.902;2023-04-19T02:56:27;102638.69;;;10.39;69.65
38466;BME280;24244;51.950;5.902;2023-04-19T02:58:53;102643.72;;;10.42;69.36
38466;BME280;24244;51.950;5.902;2023-04-19T03:01:21;102640.78;;;10.45;69.31
38466;BME280;24244;51.950;5.902;2023-04-19T03:03:48;102629.47;;;10.43;69.51
38466;BME280;24244;51.950;5.902;2023-04-19T03:06:16;102630.31;;;10.44;69.63
38466;BME280;24244;51.950;5.902;2023-04-19T03:08:43;102633.81;;;10.44;69.69
38466;BME280;24244;51.950;5.902;2023-04-19T03:11:10;102638.13;;;10.45;69.68
38466;BME280;24244;51.950;5.902;2023-04-19T03:13:37;102640.66;;;10.47;69.47
38466;BME280;24244;51.950;5.902;2023-04-19T03:16:06;102637.84;;;10.48;69.60
38466;BME280;24244;51.950;5.902;2023-04-19T03:18:34;102635.91;;;10.50;69.83
38466;BME280;24244;51.950;5.902;2023-04-19T03:21:04;102636.56;;;10.52;69.68
38466;BME280;24244;51.950;5.902;2023-04-19T03:23:32;102632.28;;;10.51;69.26
38466;BME280;24244;51.950;5.902;2023-04-19T03:25:59;102630.41;;;10.52;69.66
38466;BME280;24244;51.950;5.902;2023-04-19T03:28:26;102640.94;;;10.53;69.67
38466;BME280;24244;51.950;5.902;2023-04-19T03:30:53;102632.09;;;10.53;69.43
38466;BME280;24244;51.950;5.902;2023-04-19T03:33:21;102627.75;;;10.52;69.76
38466;BME280;24244;51.950;5.902;2023-04-19T03:35:47;102623.44;;;10.51;69.89
38466;BME280;24244;51.950;5.902;2023-04-19T03:38:14;102618.97;;;10.51;69.74
38466;BME280;24244;51.950;5.902;2023-04-19T03:40:42;102616.16;;;10.53;69.53
38466;BME280;24244;51.950;5.902;2023-04-19T03:43:09;102624.84;;;10.55;69.57
38466;BME280;24244;51.950;5.902;2023-04-19T03:45:36;102627.38;;;10.56;69.79
38466;BME280;24244;51.950;5.902;2023-04-19T03:48:03;102624.56;;;10.58;69.73
38466;BME280;24244;51.950;5.902;2023-04-19T03:50:29;102616.72;;;10.56;69.52
38466;BME280;24244;51.950;5.902;2023-04-19T03:53:02;102631.72;;;10.57;69.68
38466;BME280;24244;51.950;5.902;2023-04-19T03:55:30;102631.84;;;10.56;69.59
38466;BME280;24244;51.950;5.902;2023-04-19T03:57:59;102621.91;;;10.58;69.52
38466;BME280;24244;51.950;5.902;2023-04-19T04:00:26;102630.03;;;10.56;69.42
38466;BME280;24244;51.950;5.902;2023-04-19T04:02:56;102621.34;;;10.54;69.74
38466;BME280;24244;51.950;5.902;2023-04-19T04:05:23;102622.44;;;10.52;69.36
38466;BME280;24244;51.950;5.902;2023-04-19T04:07:53;102627.94;;;10.50;69.33
38466;BME280;24244;51.950;5.902;2023-04-19T04:10:24;102624.56;;;10.48;69.49
38466;BME280;24244;51.950;5.902;2023-04-19T04:12:52;102625.66;;;10.46;69.47
38466;BME280;24244;51.950;5.902;2023-04-19T04:15:20;102628.50;;;10.44;69.61
38466;BME280;24244;51.950;5.902;2023-04-19T04:17:47;102629.72;;;10.40;69.23
38466;BME280;24244;51.950;5.902;2023-04-19T04:20:14;102631.69;;;10.38;69.54
38466;BME280;24244;51.950;5.902;2023-04-19T04:22:42;102624.13;;;10.34;69.38
38466;BME280;24244;51.950;5.902;2023-04-19T04:25:11;102636.03;;;10.30;69.09
38466;BME280;24244;51.950;5.902;2023-04-19T04:27:38;102625.41;;;10.30;69.42
38466;BME280;24244;51.950;5.902;2023-04-19T04:30:06;102633.50;;;10.28;69.24
38466;BME280;24244;51.950;5.902;2023-04-19T04:32:37;102631.13;;;10.25;69.11
38466;BME280;24244;51.950;5.902;2023-04-19T04:35:05;102637.41;;;10.24;69.36
38466;BME280;24244;51.950;5.902;2023-04-19T04:37:32;102631.41;;;10.22;68.99
38466;BME280;24244;51.950;5.902;2023-04-19T04:40:03;102618.38;;;10.19;69.05
38466;BME280;24244;51.950;5.902;2023-04-19T04:42:34;102623.81;;;10.17;69.06
38466;BME280;24244;51.950;5.902;2023-04-19T04:45:03;102626.59;;;10.16;69.10
38466;BME280;24244;51.950;5.902;2023-04-19T04:47:31;102626.75;;;10.14;68.78
38466;BME280;24244;51.950;5.902;2023-04-19T04:50:01;102626.03;;;10.12;68.93
38466;BME280;24244;51.950;5.902;2023-04-19T04:52:28;102623.50;;;10.11;68.93
38466;BME280;24244;51.950;5.902;2023-04-19T04:54:58;102623.94;;;10.06;68.91
38466;BME280;24244;51.950;5.902;2023-04-19T04:57:25;102628.53;;;10.04;68.72
38466;BME280;24244;51.950;5.902;2023-04-19T04:59:52;102626.84;;;10.03;68.65
38466;BME280;24244;51.950;5.902;2023-04-19T05:02:24;102626.00;;;10.03;68.19
38466;BME280;24244;51.950;5.902;2023-04-19T05:04:51;102634.94;;;10.02;68.77
38466;BME280;24244;51.950;5.902;2023-04-19T05:07:20;102632.47;;;10.00;68.60
38466;BME280;24244;51.950;5.902;2023-04-19T05:09:46;102631.88;;;9.97;68.29
38466;BME280;24244;51.950;5.902;2023-04-19T05:12:14;102635.50;;;9.96;68.32
38466;BME280;24244;51.950;5.902;2023-04-19T05:14:41;102639.84;;;9.97;68.54
38466;BME280;24244;51.950;5.902;2023-04-19T05:17:08;102637.91;;;9.99;68.35
38466;BME280;24244;51.950;5.902;2023-04-19T05:19:34;102640.56;;;9.99;68.27
38466;BME280;24244;51.950;5.902;2023-04-19T05:22:01;102646.84;;;9.98;68.24
38466;BME280;24244;51.950;5.902;2023-04-19T05:24:29;102638.16;;;9.96;68.28
38466;BME280;24244;51.950;5.902;2023-04-19T05:26:56;102639.13;;;9.95;68.21
38466;BME280;24244;51.950;5.902;2023-04-19T05:29:23;102646.41;;;9.93;68.19
38466;BME280;24244;51.950;5.902;2023-04-19T05:31:50;102650.88;;;9.92;68.13
38466;BME280;24244;51.950;5.902;2023-04-19T05:34:17;102647.38;;;9.92;67.81
38466;BME280;24244;51.950;5.902;2023-04-19T05:36:47;102648.34;;;9.91;67.73
38466;BME280;24244;51.950;5.902;2023-04-19T05:39:15;102643.03;;;9.91;67.75
38466;BME280;24244;51.950;5.902;2023-04-19T05:41:45;102646.66;;;9.90;67.69
38466;BME280;24244;51.950;5.902;2023-04-19T05:44:11;102642.34;;;9.89;67.70
38466;BME280;24244;51.950;5.902;2023-04-19T05:46:39;102652.97;;;9.89;67.74
38466;BME280;24244;51.950;5.902;2023-04-19T05:49:06;102649.63;;;9.87;67.16
38466;BME280;24244;51.950;5.902;2023-04-19T05:51:33;102653.25;;;9.86;67.17
38466;BME280;24244;51.950;5.902;2023-04-19T05:54:00;102650.59;;;9.86;67.21
38466;BME280;24244;51.950;5.902;2023-04-19T05:56:27;102648.78;;;9.86;67.12
38466;BME280;24244;51.950;5.902;2023-04-19T05:58:55;102648.06;;;9.84;67.18
38466;BME280;24244;51.950;5.902;2023-04-19T06:01:22;102648.91;;;9.85;66.82
38466;BME280;24244;51.950;5.902;2023-04-19T06:03:49;102648.19;;;9.82;66.86
38466;BME280;24244;51.950;5.902;2023-04-19T06:06:20;102650.84;;;9.82;66.53
38466;BME280;24244;51.950;5.902;2023-04-19T06:08:47;102650.84;;;9.82;66.46
38466;BME280;24244;51.950;5.902;2023-04-19T06:11:14;102657.13;;;9.81;66.33
38466;BME280;24244;51.950;5.902;2023-04-19T06:13:58;102649.16;;;9.81;66.07
38466;BME280;24244;51.950;5.902;2023-04-19T06:16:25;102652.53;;;9.83;66.19
38466;BME280;24244;51.950;5.902;2023-04-19T06:18:52;102647.22;;;9.83;65.73
38466;BME280;24244;51.950;5.902;2023-04-19T06:21:20;102649.75;;;9.85;65.81
38466;BME280;24244;51.950;5.902;2023-04-19T06:23:47;102654.09;;;9.86;65.54
38466;BME280;24244;51.950;5.902;2023-04-19T06:26:15;102651.97;;;9.90;65.40
38466;BME280;24244;51.950;5.902;2023-04-19T06:28:42;102653.66;;;9.91;65.47
38466;BME280;24244;51.950;5.902;2023-04-19T06:31:10;102655.91;;;9.95;65.12
38466;BME280;24244;51.950;5.902;2023-04-19T06:33:37;102661.81;;;9.99;64.85
38466;BME280;24244;51.950;5.902;2023-04-19T06:36:08;102657.88;;;10.03;64.58
38466;BME280;24244;51.950;5.902;2023-04-19T06:38:37;102651.47;;;10.05;64.40
38466;BME280;24244;51.950;5.902;2023-04-19T06:41:04;102650.38;;;10.08;64.19
38466;BME280;24244;51.950;5.902;2023-04-19T06:43:31;102661.28;;;10.14;64.07
38466;BME280;24244;51.950;5.902;2023-04-19T06:45:59;102656.44;;;10.19;63.75
38466;BME280;24244;51.950;5.902;2023-04-19T06:48:27;102654.19;;;10.25;63.56
38466;BME280;24244;51.950;5.902;2023-04-19T06:50:54;102659.13;;;10.29;63.38
38466;BME280;24244;51.950;5.902;2023-04-19T06:53:21;102665.81;;;10.33;62.80
38466;BME280;24244;51.950;5.902;2023-04-19T06:55:52;102664.41;;;10.39;62.85
38466;BME280;24244;51.950;5.902;2023-04-19T06:58:22;102669.34;;;10.43;61.85
38466;BME280;24244;51.950;5.902;2023-04-19T07:00:49;102667.22;;;10.47;61.58
38466;BME280;24244;51.950;5.902;2023-04-19T07:03:17;102664.00;;;10.53;61.85
38466;BME280;24244;51.950;5.902;2023-04-19T07:05:46;102665.31;;;10.58;61.59
38466;BME280;24244;51.950;5.902;2023-04-19T07:08:13;102673.69;;;10.64;61.42
38466;BME280;24244;51.950;5.902;2023-04-19T07:10:42;102672.53;;;10.66;60.41
38466;BME280;24244;51.950;5.902;2023-04-19T07:13:10;102668.91;;;10.67;60.44
38466;BME280;24244;51.950;5.902;2023-04-19T07:15:37;102664.44;;;10.68;60.03
38466;BME280;24244;51.950;5.902;2023-04-19T07:18:07;102674.09;;;10.69;60.20
38466;BME280;24244;51.950;5.902;2023-04-19T07:20:37;102662.91;;;10.65;58.74
38466;BME280;24244;51.950;5.902;2023-04-19T07:23:06;102663.31;;;10.60;59.09
38466;BME280;24244;51.950;5.902;2023-04-19T07:25:33;102661.38;;;10.63;59.54
38466;BME280;24244;51.950;5.902;2023-04-19T07:27:59;102667.66;;;10.62;59.39
38466;BME280;24244;51.950;5.902;2023-04-19T07:30:27;102667.78;;;10.60;59.00
38466;BME280;24244;51.950;5.902;2023-04-19T07:32:53;102674.78;;;10.61;59.00
38466;BME280;24244;51.950;5.902;2023-04-19T07:35:21;102673.13;;;10.60;58.86
38466;BME280;24244;51.950;5.902;2023-04-19T07:37:48;102669.59;;;10.59;58.59
38466;BME280;24244;51.950;5.902;2023-04-19T07:40:17;102666.94;;;10.59;58.82
38466;BME280;24244;51.950;5.902;2023-04-19T07:42:45;102673.28;;;10.58;58.47
38466;BME280;24244;51.950;5.902;2023-04-19T07:45:12;102665.31;;;10.58;58.39
38466;BME280;24244;51.950;5.902;2023-04-19T07:47:44;102666.09;;;10.59;58.01
38466;BME280;24244;51.950;5.902;2023-04-19T07:50:13;102679.41;;;10.59;57.65
38466;BME280;24244;51.950;5.902;2023-04-19T07:52:40;102678.44;;;10.60;58.05
38466;BME280;24244;51.950;5.902;2023-04-19T07:55:08;102676.47;;;10.62;57.57
38466;BME280;24244;51.950;5.902;2023-04-19T07:57:37;102668.38;;;10.64;57.61
38466;BME280;24244;51.950;5.902;2023-04-19T08:00:05;102677.88;;;10.66;57.69
38466;BME280;24244;51.950;5.902;2023-04-19T08:02:33;102678.44;;;10.70;57.57
38466;BME280;24244;51.950;5.902;2023-04-19T08:05:03;102673.13;;;10.70;56.66
38466;BME280;24244;51.950;5.902;2023-04-19T08:07:34;102673.13;;;10.70;56.60
38466;BME280;24244;51.950;5.902;2023-04-19T08:10:03;102674.94;;;10.69;56.82
38466;BME280;24244;51.950;5.902;2023-04-19T08:12:30;102673.66;;;10.73;56.96
38466;BME280;24244;51.950;5.902;2023-04-19T08:15:16;102664.56;;;10.76;56.50
38466;BME280;24244;51.950;5.902;2023-04-19T08:18:03;102668.66;;;10.80;56.24
38466;BME280;24244;51.950;5.902;2023-04-19T08:20:31;102682.38;;;10.85;56.35
38466;BME280;24244;51.950;5.902;2023-04-19T08:23:00;102670.59;;;10.87;55.89
38466;BME280;24244;51.950;5.902;2023-04-19T08:25:40;102666.94;;;10.88;55.76
38466;BME280;24244;51.950;5.902;2023-04-19T08:28:07;102663.16;;;10.91;55.78
38466;BME280;24244;51.950;5.902;2023-04-19T08:30:39;102674.22;;;10.96;55.74
38466;BME280;24244;51.950;5.902;2023-04-19T08:33:07;102672.81;;;11.02;54.90
38466;BME280;24244;51.950;5.902;2023-04-19T08:35:36;102667.22;;;11.05;54.43
38466;BME280;24244;51.950;5.902;2023-04-19T08:38:03;102667.47;;;11.11;54.45
38466;BME280;24244;51.950;5.902;2023-04-19T08:40:30;102663.25;;;11.18;54.56
38466;BME280;24244;51.950;5.902;2023-04-19T08:42:57;102657.34;;;11.24;54.65
38466;BME280;24244;51.950;5.902;2023-04-19T08:45:29;102666.59;;;11.30;54.39
38466;BME280;24244;51.950;5.902;2023-04-19T08:48:04;102664.50;;;11.33;54.23
38466;BME280;24244;51.950;5.902;2023-04-19T08:50:32;102662.34;;;11.37;53.58
38466;BME280;24244;51.950;5.902;2023-04-19T08:56:02;102657.28;;;11.53;53.38
38466;BME280;24244;51.950;5.902;2023-04-19T08:58:31;102664.53;;;11.61;53.08
38466;BME280;24244;51.950;5.902;2023-04-19T09:01:20;102659.31;;;11.69;52.90
38466;BME280;24244;51.950;5.902;2023-04-19T09:04:12;102657.91;;;11.74;52.72
38466;BME280;24244;51.950;5.902;2023-04-19T09:07:12;102649.78;;;11.76;52.26
38466;BME280;24244;51.950;5.902;2023-04-19T09:10:03;102647.50;;;11.81;52.33
38466;BME280;24244;51.950;5.902;2023-04-19T09:12:31;102644.56;;;11.84;52.49
38466;BME280;24244;51.950;5.902;2023-04-19T09:15:04;102645.09;;;11.88;52.62
38466;BME280;24244;51.950;5.902;2023-04-19T09:17:39;102643.13;;;11.90;52.06
38466;BME280;24244;51.950;5.902;2023-04-19T09:20:13;102643.97;;;11.90;52.48
38466;BME280;24244;51.950;5.902;2023-04-19T09:22:49;102646.47;;;11.92;52.51
38466;BME280;24244;51.950;5.902;2023-04-19T09:25:28;102653.31;;;11.94;52.67
38466;BME280;24244;51.950;5.902;2023-04-19T09:28:21;102638.16;;;11.95;52.39
38466;BME280;24244;51.950;5.902;2023-04-19T09:30:49;102646.72;;;11.98;52.31
38466;BME280;24244;51.950;5.902;2023-04-19T09:33:36;102645.88;;;11.98;50.98
38466;BME280;24244;51.950;5.902;2023-04-19T09:36:25;102657.25;;;12.00;51.73
38466;BME280;24244;51.950;5.902;2023-04-19T09:38:55;102647.25;;;12.02;51.03
38466;BME280;24244;51.950;5.902;2023-04-19T09:41:25;102632.94;;;12.03;51.83
38466;BME280;24244;51.950;5.902;2023-04-19T09:44:10;102650.16;;;12.08;51.81
38466;BME280;24244;51.950;5.902;2023-04-19T09:46:57;102640.19;;;12.10;50.87
38466;BME280;24244;51.950;5.902;2023-04-19T09:49:24;102641.56;;;12.14;51.01
38466;BME280;24244;51.950;5.902;2023-04-19T09:52:06;102636.78;;;12.18;51.05
38466;BME280;24244;51.950;5.902;2023-04-19T09:54:34;102629.31;;;12.22;50.65
38466;BME280;24244;51.950;5.902;2023-04-19T09:57:01;102626.88;;;12.28;50.83
38466;BME280;24244;51.950;5.902;2023-04-19T09:59:29;102635.41;;;12.32;50.45
38466;BME280;24244;51.950;5.902;2023-04-19T10:01:58;102615.47;;;12.36;50.58
38466;BME280;24244;51.950;5.902;2023-04-19T10:04:29;102629.88;;;12.43;50.82
38466;BME280;24244;51.950;5.902;2023-04-19T10:07:23;102626.72;;;12.47;50.58
38466;BME280;24244;51.950;5.902;2023-04-19T10:10:08;102629.63;;;12.54;50.52
38466;BME280;24244;51.950;5.902;2023-04-19T10:12:50;102617.63;;;12.58;50.23
38466;BME280;24244;51.950;5.902;2023-04-19T10:15:24;102618.03;;;12.63;50.06
38466;BME280;24244;51.950;5.902;2023-04-19T10:18:05;102622.06;;;12.67;50.00
38466;BME280;24244;51.950;5.902;2023-04-19T10:20:44;102622.41;;;12.72;50.00
38466;BME280;24244;51.950;5.902;2023-04-19T10:23:16;102614.13;;;12.75;49.06
38466;BME280;24244;51.950;5.902;2023-04-19T10:25:46;102605.63;;;12.80;49.93
38466;BME280;24244;51.950;5.902;2023-04-19T10:28:16;102619.38;;;12.85;49.45
38466;BME280;24244;51.950;5.902;2023-04-19T10:30:54;102602.72;;;12.91;48.84
38466;BME280;24244;51.950;5.902;2023-04-19T10:33:37;102608.59;;;12.94;48.59
38466;BME280;24244;51.950;5.902;2023-04-19T10:36:13;102591.44;;;12.97;48.49
38466;BME280;24244;51.950;5.902;2023-04-19T10:38:44;102605.28;;;13.01;48.13
38466;BME280;24244;51.950;5.902;2023-04-19T10:41:14;102607.34;;;13.07;48.50
38466;BME280;24244;51.950;5.902;2023-04-19T10:43:46;102600.53;;;13.12;48.53
38466;BME280;24244;51.950;5.902;2023-04-19T10:46:15;102601.75;;;13.18;48.27
38466;BME280;24244;51.950;5.902;2023-04-19T10:48:51;102599.63;;;13.21;47.29
38466;BME280;24244;51.950;5.902;2023-04-19T10:51:26;102604.63;;;13.24;47.42
38466;BME280;24244;51.950;5.902;2023-04-19T10:53:59;102583.13;;;13.26;47.74
38466;BME280;24244;51.950;5.902;2023-04-19T10:59:38;102590.34;;;13.33;47.45
38466;BME280;24244;51.950;5.902;2023-04-19T11:02:27;102578.31;;;13.38;47.20
38466;BME280;24244;51.950;5.902;2023-04-19T11:05:01;102572.53;;;13.42;47.12
38466;BME280;24244;51.950;5.902;2023-04-19T11:07:41;102571.19;;;13.46;46.92
38466;BME280;24244;51.950;5.902;2023-04-19T11:10:11;102568.84;;;13.51;47.19
38466;BME280;24244;51.950;5.902;2023-04-19T11:12:42;102566.38;;;13.58;46.80
38466;BME280;24244;51.950;5.902;2023-04-19T11:15:09;102563.41;;;13.61;45.68
38466;BME280;24244;51.950;5.902;2023-04-19T11:17:41;102563.75;;;13.66;45.66
38466;BME280;24244;51.950;5.902;2023-04-19T11:20:12;102559.41;;;13.73;45.40
38466;BME280;24244;51.950;5.902;2023-04-19T11:22:43;102541.72;;;13.80;45.43
38466;BME280;24244;51.950;5.902;2023-04-19T11:25:12;102549.91;;;13.87;44.86
38466;BME280;24244;51.950;5.902;2023-04-19T11:27:41;102527.88;;;13.93;44.65
38466;BME280;24244;51.950;5.902;2023-04-19T11:30:11;102529.91;;;13.99;44.98
38466;BME280;24244;51.950;5.902;2023-04-19T11:32:43;102517.72;;;14.04;44.18
38466;BME280;24244;51.950;5.902;2023-04-19T11:35:13;102524.38;;;14.08;43.75
38466;BME280;24244;51.950;5.902;2023-04-19T11:37:41;102516.88;;;14.12;43.85
38466;BME280;24244;51.950;5.902;2023-04-19T11:40:13;102505.69;;;14.17;43.39
38466;BME280;24244;51.950;5.902;2023-04-19T11:42:44;102513.88;;;14.23;43.13
38466;BME280;24244;51.950;5.902;2023-04-19T11:45:23;102505.53;;;14.26;42.05
38466;BME280;24244;51.950;5.902;2023-04-19T11:47:58;102504.84;;;14.32;42.89
38466;BME280;24244;51.950;5.902;2023-04-19T11:50:36;102508.72;;;14.38;42.68
38466;BME280;24244;51.950;5.902;2023-04-19T11:53:13;102501.38;;;14.40;42.01
38466;BME280;24244;51.950;5.902;2023-04-19T11:55:53;102506.03;;;14.46;42.53
38466;BME280;24244;51.950;5.902;2023-04-19T11:58:46;102504.69;;;14.50;42.40
38466;BME280;24244;51.950;5.902;2023-04-19T12:01:19;102504.19;;;14.55;42.13
38466;BME280;24244;51.950;5.902;2023-04-19T12:03:47;102490.13;;;14.61;42.27
38466;BME280;24244;51.950;5.902;2023-04-19T12:06:17;102492.28;;;14.65;41.92
38466;BME280;24244;51.950;5.902;2023-04-19T12:08:48;102493.63;;;14.69;41.43
38466;BME280;24244;51.950;5.902;2023-04-19T12:11:19;102492.44;;;14.72;41.38
38466;BME280;24244;51.950;5.902;2023-04-19T12:13:48;102485.06;;;14.74;41.15
38466;BME280;24244;51.950;5.902;2023-04-19T12:16:28;102472.53;;;14.74;40.90
38466;BME280;24244;51.950;5.902;2023-04-19T12:18:55;102462.28;;;14.78;40.14
38466;BME280;24244;51.950;5.902;2023-04-19T12:21:24;102469.81;;;14.82;40.40
38466;BME280;24244;51.950;5.902;2023-04-19T12:23:55;102470.81;;;14.89;40.72
38466;BME280;24244;51.950;5.902;2023-04-19T12:26:28;102480.00;;;14.95;40.77
38466;BME280;24244;51.950;5.902;2023-04-19T12:28:55;102457.56;;;14.96;38.99
38466;BME280;24244;51.950;5.902;2023-04-19T12:31:22;102473.94;;;15.01;39.16
38466;BME280;24244;51.950;5.902;2023-04-19T12:33:51;102467.25;;;15.05;39.41
38466;BME280;24244;51.950;5.902;2023-04-19T12:36:18;102457.84;;;15.09;39.50
38466;BME280;24244;51.950;5.902;2023-04-19T12:38:45;102454.63;;;15.14;39.81
38466;BME280;24244;51.950;5.902;2023-04-19T12:41:12;102457.63;;;15.19;40.00
38466;BME280;24244;51.950;5.902;2023-04-19T12:43:40;102460.63;;;15.24;40.30
38466;BME280;24244;51.950;5.902;2023-04-19T12:46:07;102450.38;;;15.27;40.15
38466;BME280;24244;51.950;5.902;2023-04-19T12:48:33;102436.28;;;15.34;40.19
38466;BME280;24244;51.950;5.902;2023-04-19T12:51:00;102430.22;;;15.40;40.21
38466;BME280;24244;51.950;5.902;2023-04-19T12:53:36;102432.34;;;15.44;40.23
38466;BME280;24244;51.950;5.902;2023-04-19T12:56:03;102434.50;;;15.49;40.59
38466;BME280;24244;51.950;5.902;2023-04-19T12:58:29;102436.84;;;15.52;40.11
38466;BME280;24244;51.950;5.902;2023-04-19T13:01:01;102422.47;;;15.53;39.43
38466;BME280;24244;51.950;5.902;2023-04-19T13:03:27;102432.00;;;15.55;39.32
38466;BME280;24244;51.950;5.902;2023-04-19T13:05:58;102422.56;;;15.59;39.85
38466;BME280;24244;51.950;5.902;2023-04-19T13:08:25;102410.13;;;15.66;40.29
38466;BME280;24244;51.950;5.902;2023-04-19T13:11:11;102400.53;;;15.72;40.35